Latest Weather Observations for Melbourne (Olympic Park)

IDV60901

Issued at 10:31 pm EDT Tuesday 23 October 2018 (issued every 10 minutes, with the page automatically refreshed every 10 minutes)

About weather observations | Map of Melbourne area stations | Latest observations for Melbourne area | Other Formats
Station Details ID: 086338 Name: MELBOURNE (OLYMPIC PARK) Lat: -37.83 Lon: 144.98 Height: 7.53 m
Data from the previous 72 hours. | See also: Recent months at Melbourne (Olympic Park)
Date/Time
EDT
Temp
°C
App
Temp
°C
Dew
Point
°C
Rel
Hum
%
Delta-T
°C
Wind Press
QNH
hPa
Press
MSL
hPa
Rain since
9am
mm
Dir  Spd
km/h
Gust
km/h
Spd
kts
Gust
kts
23/10:30pm 13.2 10.5 5.4 59 3.6 S 9 20 5 11 1021.2 1021.2 0.0
23/10:00pm 13.4 10.1 6.5 63 3.3 S 13 24 7 13 1021.0 1021.0 0.0
23/09:30pm 13.7 10.1 5.1 56 4.0 S 13 20 7 11 1020.4 1020.4 0.0
23/09:00pm 13.7 10.3 6.1 60 3.6 S 13 24 7 13 1020.4 1020.4 0.0
23/08:30pm 13.8 9.9 5.4 57 3.9 S 15 28 8 15 1019.9 1019.9 0.0
23/08:00pm 13.7 9.6 6.3 61 3.5 S 17 28 9 15 1019.3 1019.3 0.0
23/07:30pm 14.0 10.1 7.1 63 3.4 S 17 32 9 17 1018.9 1018.9 0.0
23/07:00pm 14.3 10.7 6.6 60 3.7 S 15 30 8 16 1018.1 1018.1 0.0
23/06:30pm 14.4 11.0 7.5 63 3.4 SSE 15 28 8 15 1017.4 1017.4 0.0
23/06:00pm 14.4 10.5 7.2 62 3.5 S 17 35 9 19 1016.9 1016.9 0.0
23/05:30pm 14.5 10.9 8.5 67 3.0 S 17 28 9 15 1016.4 1016.4 0.0
23/05:00pm 14.9 10.8 8.6 66 3.2 S 20 41 11 22 1015.9 1015.9 0.0
23/04:55pm 15.3 11.4 8.8 65 3.3 S 19 41 10 22 1015.8 1015.8 0.0
23/04:42pm 15.7 11.8 9.4 66 3.3 S 20 35 11 19 1015.6 1015.6 0.0
23/04:30pm 16.0 12.5 8.7 62 3.7 S 17 33 9 18 1015.4 1015.4 0.0
23/04:00pm 16.2 12.2 8.9 62 3.7 S 20 33 11 18 1015.1 1015.1 0.0
23/03:30pm 17.2 13.0 8.4 56 4.5 SSW 20 35 11 19 1014.4 1014.4 0.0
23/03:00pm 18.4 15.4 9.2 55 4.8 SSE 15 24 8 13 1014.2 1014.2 0.0
23/02:30pm 17.4 14.6 8.5 56 4.6 S 13 26 7 14 1014.3 1014.3 0.0
23/02:00pm 17.1 14.8 9.0 59 4.2 SSW 11 17 6 9 1014.3 1014.3 0.0
23/01:30pm 16.7 15.0 9.9 64 3.6 S 9 17 5 9 1014.2 1014.2 0.0
23/01:00pm 16.6 13.5 8.8 60 4.0 SSW 15 26 8 14 1014.3 1014.3 0.0
23/12:30pm 16.6 14.0 9.3 62 3.8 S 13 22 7 12 1014.2 1014.2 0.0
23/12:00pm 16.9 14.6 10.3 65 3.5 SSW 13 26 7 14 1014.2 1014.2 0.0
23/11:30am 16.3 13.6 10.2 67 3.2 SW 15 24 8 13 1014.2 1014.2 0.0
23/11:00am 15.8 13.7 9.9 68 3.1 SSW 11 20 6 11 1014.2 1014.2 0.0
23/10:30am 15.5 13.1 10.1 70 2.8 SSW 13 28 7 15 1013.9 1013.9 0.0
23/10:00am 14.9 13.7 11.5 80 1.8 WSW 9 15 5 8 1014.0 1014.0 0.0
23/09:30am 15.1 13.9 11.7 80 1.8 S 9 22 5 12 1013.1 1013.1 0.0
23/09:00am 14.8 13.6 11.6 81 1.7 SW 9 17 5 9 1013.3 1013.3 0.0
23/08:30am 14.8 14.8 11.2 79 1.9 SSW 2 7 1 4 1013.0 1013.0 0.0
23/08:00am 14.5 13.4 10.7 78 2.0 SW 7 13 4 7 1012.0 1012.0 0.0
23/07:30am 14.3 12.8 10.5 78 2.0 WSW 9 20 5 11 1013.1 1013.1 0.0
23/07:00am 14.2 13.4 11.2 82 1.6 SSW 6 15 3 8 1011.5 1011.5 0.0
23/06:30am 14.0 13.0 12.2 89 1.0 SW 9 15 5 8 1011.7 1011.7 0.0
23/06:00am 13.4 14.3 12.9 97 0.3 CALM 0 4 0 2 1011.4 1011.4 0.0
23/05:30am 13.3 13.9 13.0 98 0.2 ESE 2 9 1 5 1010.5 1010.5 0.0
23/05:00am 13.0 13.8 12.7 98 0.2 CALM 0 0 0 0 1010.6 1010.6 0.0
23/04:30am 13.1 13.8 12.3 95 0.4 CALM 0 0 0 0 1010.8 1010.8 0.0
23/04:00am 13.2 13.9 12.1 93 0.6 CALM 0 0 0 0 1011.0 1011.0 0.0
23/03:30am 13.4 14.0 12.0 91 0.8 CALM 0 6 0 3 1011.8 1011.8 0.0
23/03:00am 13.3 13.4 11.5 89 1.0 S 2 7 1 4 1011.9 1011.9 0.0
23/02:30am 13.7 14.2 11.6 87 1.1 CALM 0 0 0 0 1011.7 1011.7 0.0
23/02:00am 14.2 14.6 11.4 83 1.5 CALM 0 0 0 0 1011.7 1011.7 0.0
23/01:30am 14.8 14.0 11.2 79 1.9 SSE 6 9 3 5 1011.9 1011.9 0.0
23/01:00am 15.3 13.6 11.3 77 2.1 S 11 17 6 9 1012.1 1012.1 0.0
23/12:30am 15.7 13.7 11.5 76 2.3 SSW 13 24 7 13 1012.4 1012.4 0.0
23/12:00am 16.2 13.5 11.8 75 2.4 SW 17 30 9 16 1012.4 1012.4 0.0
 
Date/Time
EDT
Temp
°C
App
Temp
°C
Dew
Point
°C
Rel
Hum
%
Delta-T
°C
Wind Press
QNH
hPa
Press
MSL
hPa
Rain since
9am
mm
Dir  Spd
km/h
Gust
km/h
Spd
kts
Gust
kts
22/11:30pm 19.0 16.3 8.9 52 5.3 SW 13 30 7 16 1011.5 1011.5 0.0
22/11:00pm 21.2 17.7 5.6 36 7.8 SSW 13 24 7 13 1010.6 1010.6 0.0
22/10:30pm 22.8 18.9 3.4 28 9.4 NNE 13 22 7 12 1009.3 1009.3 0.0
22/10:00pm 22.8 18.6 3.9 29 9.2 NNE 15 24 8 13 1009.5 1009.5 0.0
22/09:30pm 22.8 19.2 4.8 31 8.9 NNE 13 20 7 11 1009.7 1009.7 0.0
22/09:00pm 22.9 19.4 5.3 32 8.8 NNE 13 20 7 11 1009.8 1009.8 0.0
22/08:30pm 23.5 20.0 5.4 31 9.1 NNE 13 19 7 10 1009.7 1009.7 0.0
22/08:00pm 24.1 20.6 5.5 30 9.4 NNE 13 24 7 13 1009.6 1009.6 0.0
22/07:30pm 24.6 21.2 5.9 30 9.6 NNE 13 19 7 10 1009.6 1009.6 0.0
22/07:00pm 25.6 22.3 6.3 29 10.0 NNE 13 26 7 14 1009.4 1009.4 0.0
22/06:30pm 26.4 21.9 5.9 27 10.6 N 19 32 10 17 1009.4 1009.4 0.0
22/06:00pm 26.4 20.8 5.4 26 10.8 N 24 37 13 20 1009.4 1009.4 0.0
22/05:30pm 26.5 21.2 7.0 29 10.3 N 24 41 13 22 1009.5 1009.5 0.0
22/05:00pm 26.2 20.8 6.3 28 10.4 N 24 37 13 20 1009.6 1009.6 0.0
22/04:30pm 26.5 21.5 6.5 28 10.5 N 22 35 12 19 1010.0 1010.0 0.0
22/04:00pm 26.6 21.5 7.6 30 10.1 N 24 39 13 21 1010.2 1010.2 0.0
22/03:30pm 26.1 20.8 6.7 29 10.2 NNW 24 41 13 22 1010.3 1010.3 0.0
22/03:00pm 25.8 19.8 6.9 30 9.9 N 28 43 15 23 1010.6 1010.6 0.0
22/02:30pm 26.0 20.5 7.6 31 9.8 N 26 43 14 23 1011.1 1011.1 0.0
22/02:00pm 25.8 20.6 7.4 31 9.7 N 24 37 13 20 1011.6 1011.6 0.0
22/01:30pm 24.7 19.2 6.0 30 9.6 N 24 37 13 20 1011.9 1011.9 0.0
22/01:00pm 24.9 20.1 7.5 33 9.2 N 22 41 12 22 1012.1 1012.1 0.0
22/12:30pm 23.4 18.1 6.7 34 8.6 N 24 43 13 23 1012.5 1012.5 0.0
22/12:00pm 22.5 16.8 6.7 36 8.1 N 26 39 14 21 1013.1 1013.1 0.0
22/11:30am 21.9 17.1 7.3 39 7.5 N 22 35 12 19 1013.4 1013.4 0.0
22/11:00am 21.4 15.7 6.9 39 7.4 NNW 26 43 14 23 1013.7 1013.7 0.0
22/10:30am 20.6 14.8 6.2 39 7.2 N 26 37 14 20 1013.8 1013.8 0.0
22/10:00am 19.9 16.4 7.0 43 6.5 N 15 24 8 13 1013.9 1013.9 0.0
22/09:30am 18.3 13.8 6.8 47 5.7 N 20 32 11 17 1014.0 1014.0 0.0
22/09:00am 16.2 13.3 8.2 59 4.0 NNE 13 19 7 10 1014.2 1014.2 0.0
22/08:30am 13.6 10.2 7.6 67 2.9 NNE 15 20 8 11 1014.4 1014.4 0.0
22/08:00am 11.4 8.3 7.1 75 2.1 NNE 13 19 7 10 1014.6 1014.6 0.0
22/07:30am 9.7 6.1 6.8 82 1.4 NNE 15 20 8 11 1014.7 1014.7 0.0
22/07:00am 9.1 5.9 6.7 85 1.1 NNE 13 17 7 9 1014.7 1014.7 0.0
22/06:30am 9.0 5.7 6.6 85 1.1 NNE 13 17 7 9 1014.5 1014.5 0.0
22/06:00am 9.2 6.3 6.6 84 1.2 NNE 11 15 6 8 1014.4 1014.4 0.0
22/05:30am 9.3 6.8 6.6 83 1.3 NNE 9 15 5 8 1014.3 1014.3 0.0
22/05:00am 9.2 6.7 6.6 84 1.2 NNE 9 15 5 8 1014.6 1014.6 0.0
22/04:30am 9.4 7.0 6.8 84 1.2 NNE 9 13 5 7 1014.6 1014.6 0.0
22/04:00am 9.6 7.2 7.2 85 1.1 NE 9 13 5 7 1014.6 1014.6 0.0
22/03:30am 9.8 7.4 7.2 84 1.2 NNE 9 15 5 8 1014.8 1014.8 0.0
22/03:00am 10.3 7.6 7.4 82 1.4 NNE 11 15 6 8 1014.9 1014.9 0.0
22/02:30am 11.1 8.4 7.4 78 1.8 NE 11 13 6 7 1015.0 1015.0 0.0
22/02:00am 12.0 10.2 7.9 76 2.0 NE 7 9 4 5 1015.2 1015.2 0.0
22/01:30am 11.8 10.9 7.9 77 1.9 NNE 2 9 1 5 1015.8 1015.8 0.0
22/01:00am 12.5 10.4 8.4 76 2.0 NNE 9 11 5 6 1016.1 1016.1 0.0
22/12:30am 13.1 12.0 9.9 81 1.6 NE 6 9 3 5 1016.3 1016.3 0.0
22/12:00am 12.8 12.9 10.2 84 1.3 CALM 0 7 0 4 1016.5 1016.5 0.0
 
Date/Time
EDT
Temp
°C
App
Temp
°C
Dew
Point
°C
Rel
Hum
%
Delta-T
°C
Wind Press
QNH
hPa
Press
MSL
hPa
Rain since
9am
mm
Dir  Spd
km/h
Gust
km/h
Spd
kts
Gust
kts
21/11:30pm 13.3 13.0 10.1 81 1.7 ESE 2 9 1 5 1016.9 1016.9 0.0
21/11:00pm 13.6 12.6 10.4 81 1.7 SE 6 9 3 5 1017.1 1017.1 0.0
21/10:30pm 13.8 13.9 10.0 78 2.0 CALM 0 7 0 4 1017.2 1017.2 0.0
21/10:00pm 14.5 14.0 9.5 72 2.6 SE 2 7 1 4 1017.2 1017.2 0.0
21/09:30pm 14.6 14.0 8.8 68 2.9 SE 2 11 1 6 1017.0 1017.0 0.0
21/09:00pm 14.7 12.7 7.3 61 3.6 S 7 13 4 7 1017.1 1017.1 0.0
21/08:30pm 14.5 13.9 7.5 63 3.5 CALM 0 0 0 0 1016.9 1016.9 0.0
21/08:00pm 16.0 15.1 5.9 51 4.9 CALM 0 0 0 0 1016.8 1016.8 0.0
21/07:30pm 17.0 15.6 5.6 47 5.5 S 2 9 1 5 1016.6 1016.6 0.0
21/07:00pm 18.1 15.6 4.7 41 6.4 SE 7 13 4 7 1016.4 1016.4 0.0
21/06:30pm 18.4 15.9 4.9 41 6.5 SSW 7 13 4 7 1016.4 1016.4 0.0
21/06:00pm 18.4 15.5 4.6 40 6.6 SSW 9 19 5 10 1016.7 1016.7 0.0
21/05:30pm 18.8 15.9 4.9 40 6.7 SSW 9 15 5 8 1016.7 1016.7 0.0
21/05:00pm 18.7 15.8 4.5 39 6.8 SSW 9 15 5 8 1016.8 1016.8 0.0
21/04:30pm 18.5 15.2 4.3 39 6.8 S 11 17 6 9 1017.1 1017.1 0.0
21/04:00pm 18.6 15.7 4.8 40 6.6 SSW 9 15 5 8 1017.5 1017.5 0.0
21/03:30pm 18.5 15.4 5.4 42 6.4 SSW 11 19 6 10 1017.9 1017.9 0.0
21/03:00pm 17.9 14.3 4.8 42 6.3 S 13 20 7 11 1018.3 1018.3 0.0
21/02:30pm 18.2 15.5 5.8 44 6.1 S 9 13 5 7 1018.8 1018.8 0.0
21/02:00pm 17.2 14.0 4.9 44 5.8 S 11 20 6 11 1019.4 1019.4 0.0
21/01:30pm 16.8 14.3 4.8 45 5.7 SW 7 15 4 8 1019.7 1019.7 0.0
21/01:00pm 16.2 13.9 5.8 50 5.0 SW 7 11 4 6 1019.8 1019.8 0.0
21/12:30pm 16.1 12.9 6.8 54 4.6 S 13 20 7 11 1020.1 1020.1 0.0
21/12:00pm 15.4 12.6 6.9 57 4.2 SSW 11 17 6 9 1020.4 1020.4 0.0
21/11:30am 15.2 12.7 8.2 63 3.5 SSW 11 17 6 9 1020.6 1020.6 0.0
21/11:00am 15.3 14.0 10.1 71 2.7 S 7 15 4 8 1020.6 1020.6 0.0
21/10:30am 14.9 13.2 9.9 72 2.6 SSW 9 19 5 10 1020.6 1020.6 0.0
21/10:00am 14.4 12.5 9.2 71 2.6 WSW 9 20 5 11 1020.6 1020.6 0.0
21/09:30am 14.0 12.1 9.2 73 2.4 SSW 9 17 5 9 1020.5 1020.5 0.0
21/09:00am 12.8 10.8 8.7 76 2.0 WSW 9 13 5 7 1020.4 1020.4 5.6
21/08:30am 12.1 10.1 8.6 79 1.7 WSW 9 13 5 7 1020.2 1020.2 5.6
21/08:00am 11.6 10.1 9.0 84 1.3 W 7 13 4 7 1019.9 1019.9 5.6
21/07:30am 9.6 9.2 8.2 91 0.7 CALM 0 0 0 0 1019.8 1019.8 5.6
21/07:00am 8.1 7.4 7.0 93 0.5 CALM 0 0 0 0 1019.7 1019.7 5.6
21/06:30am 7.8 7.0 6.7 93 0.5 CALM 0 6 0 3 1019.5 1019.5 5.6
21/06:00am 7.7 6.9 6.6 93 0.5 CALM 0 0 0 0 1019.3 1019.3 5.6
21/05:30am 7.9 7.2 7.1 95 0.4 CALM 0 6 0 3 1019.2 1019.2 5.6
21/05:00am 8.3 7.7 7.4 94 0.4 CALM 0 0 0 0 1019.1 1019.1 5.6
21/04:30am 8.5 7.9 7.4 93 0.5 CALM 0 0 0 0 1019.2 1019.2 5.6
21/04:00am 8.9 8.3 7.2 89 0.8 CALM 0 0 0 0 1019.3 1019.3 5.6
21/03:30am 9.3 8.7 7.3 87 0.9 CALM 0 0 0 0 1019.3 1019.3 5.6
21/03:00am 9.7 9.0 7.0 83 1.3 CALM 0 0 0 0 1019.4 1019.4 5.6
21/02:30am 10.3 9.1 6.5 77 1.8 WSW 2 9 1 5 1019.4 1019.4 5.6
21/02:00am 10.6 8.4 6.4 75 2.0 W 7 11 4 6 1019.6 1019.6 5.6
21/01:30am 10.8 9.3 6.6 75 2.0 WSW 4 7 2 4 1019.6 1019.6 5.6
21/01:00am 11.2 9.2 6.3 72 2.3 WSW 6 11 3 6 1019.8 1019.8 5.6
21/12:30am 11.5 9.4 6.8 73 2.2 W 7 13 4 7 1020.1 1020.1 5.6
21/12:00am 11.9 10.1 7.0 72 2.3 W 6 11 3 6 1020.2 1020.2 5.6
 
Date/Time
EDT
Temp
°C
App
Temp
°C
Dew
Point
°C
Rel
Hum
%
Delta-T
°C
Wind Press
QNH
hPa
Press
MSL
hPa
Rain since
9am
mm
Dir  Spd
km/h
Gust
km/h
Spd
kts
Gust
kts
20/11:30pm 12.9 10.0 6.7 66 3.0 S 11 20 6 11 1020.2 1020.2 5.6
20/11:00pm 13.2 9.4 5.9 61 3.4 S 15 24 8 13 1020.3 1020.3 5.6

Latest Capital City Observations: Canberra | Sydney | Melbourne | Brisbane | Adelaide | Perth | Hobart | Darwin

Other Formats:

Comma delimited format used in spreadsheet applications
http://www.bom.gov.au/fwo/IDV60901/IDV60901.95936.axf

JavaScript Object Notation format (JSON) in row-major order
http://www.bom.gov.au/fwo/IDV60901/IDV60901.95936.json